createdAt,value
2023-03-22T00:02:14.349Z,45.61
2023-03-22T00:04:46.241Z,45.50
2023-03-22T00:07:17.233Z,45.52
2023-03-22T00:09:48.173Z,45.79
2023-03-22T00:12:18.808Z,45.74
2023-03-22T00:14:50.042Z,45.98
2023-03-22T00:17:23.097Z,45.79
2023-03-22T00:19:54.807Z,45.78
2023-03-22T00:22:26.187Z,45.88
2023-03-22T00:24:56.798Z,46.02
2023-03-22T00:27:27.695Z,45.89
2023-03-22T00:29:58.640Z,45.98
2023-03-22T00:32:29.276Z,45.86
2023-03-22T00:35:00.272Z,45.99
2023-03-22T00:37:33.970Z,46.03
2023-03-22T00:40:05.132Z,46.24
2023-03-22T00:42:35.841Z,46.15
2023-03-22T00:45:09.720Z,46.23
2023-03-22T00:47:41.088Z,46.29
2023-03-22T00:50:13.592Z,46.14
2023-03-22T00:52:44.187Z,46.00
2023-03-22T00:55:15.454Z,46.15
2023-03-22T00:57:46.056Z,46.23
2023-03-22T01:00:18.481Z,45.98
2023-03-22T01:02:49.189Z,46.12
2023-03-22T01:05:22.103Z,46.19
2023-03-22T01:07:55.107Z,46.14
2023-03-22T01:10:25.866Z,46.14
2023-03-22T01:12:56.986Z,46.12
2023-03-22T01:15:27.843Z,46.08
2023-03-22T01:17:58.764Z,46.05
2023-03-22T01:20:32.886Z,46.30
2023-03-22T01:23:04.039Z,46.19
2023-03-22T01:25:34.737Z,46.17
2023-03-22T01:28:06.856Z,46.40
2023-03-22T01:30:37.996Z,46.21
2023-03-22T01:33:09.439Z,46.46
2023-03-22T01:35:40.490Z,46.45
2023-03-22T01:38:11.356Z,46.29
2023-03-22T01:40:42.424Z,46.27
2023-03-22T01:43:17.659Z,46.43
2023-03-22T01:45:50.099Z,46.46
2023-03-22T01:48:29.076Z,46.35
2023-03-22T01:51:06.400Z,46.50
2023-03-22T01:53:41.106Z,46.54
2023-03-22T01:56:13.549Z,46.48
2023-03-22T01:58:45.202Z,46.39
2023-03-22T02:01:16.154Z,46.72
2023-03-22T02:03:52.251Z,46.58
2023-03-22T02:06:24.456Z,46.53
2023-03-22T02:08:57.998Z,46.51
2023-03-22T02:11:34.024Z,46.75
2023-03-22T02:14:15.808Z,46.62
2023-03-22T02:16:57.423Z,46.50
2023-03-22T02:20:06.248Z,46.60
2023-03-22T02:22:58.422Z,46.46
2023-03-22T02:26:00.011Z,46.46
2023-03-22T02:28:41.438Z,46.39
2023-03-22T02:31:36.158Z,46.54
2023-03-22T02:34:49.629Z,46.52
2023-03-22T02:37:39.917Z,46.50
2023-03-22T02:40:16.712Z,46.66
2023-03-22T02:42:56.929Z,46.80
2023-03-22T02:45:35.185Z,46.81
2023-03-22T02:48:15.851Z,46.88
2023-03-22T02:50:52.694Z,46.83
2023-03-22T02:53:26.665Z,46.87
2023-03-22T02:56:01.752Z,46.97
2023-03-22T02:58:39.239Z,46.77
2023-03-22T03:01:13.756Z,46.88
2023-03-22T03:03:48.231Z,47.06
2023-03-22T03:06:25.801Z,47.07
2023-03-22T03:08:58.033Z,46.99
2023-03-22T03:11:29.093Z,46.97
2023-03-22T03:13:59.775Z,47.03
2023-03-22T03:16:36.724Z,46.90
2023-03-22T03:19:15.765Z,46.85
2023-03-22T03:21:54.788Z,46.96
2023-03-22T03:24:34.914Z,46.97
2023-03-22T03:27:12.943Z,47.10
2023-03-22T03:29:46.924Z,47.10
2023-03-22T03:32:25.662Z,47.16
2023-03-22T03:35:03.863Z,46.99
2023-03-22T03:37:39.311Z,46.90
2023-03-22T03:40:16.069Z,46.99
2023-03-22T03:42:52.235Z,47.04
2023-03-22T03:45:24.386Z,47.09
2023-03-22T03:47:58.583Z,47.18
2023-03-22T03:50:30.233Z,47.08
2023-03-22T03:53:01.559Z,47.23
2023-03-22T03:55:33.610Z,47.32
2023-03-22T03:58:04.659Z,47.14
2023-03-22T04:00:35.597Z,47.03
2023-03-22T04:03:07.519Z,47.18
2023-03-22T04:05:38.914Z,47.15
2023-03-22T04:08:10.694Z,47.18
2023-03-22T04:10:41.831Z,47.27
2023-03-22T04:13:12.766Z,47.18
2023-03-22T04:15:43.389Z,47.25
2023-03-22T04:18:14.297Z,47.22
2023-03-22T04:20:46.892Z,47.26
2023-03-22T04:23:17.975Z,47.25
2023-03-22T04:25:50.261Z,47.20
2023-03-22T04:28:20.976Z,47.24
2023-03-22T04:30:52.189Z,47.34
2023-03-22T04:33:24.099Z,47.24
2023-03-22T04:35:57.023Z,47.38
2023-03-22T04:38:28.215Z,47.30
2023-03-22T04:40:58.982Z,47.27
2023-03-22T04:43:30.151Z,47.25
2023-03-22T04:46:01.927Z,47.31
2023-03-22T04:48:32.916Z,47.56
2023-03-22T04:51:04.776Z,47.37
2023-03-22T04:53:38.950Z,46.99
2023-03-22T04:56:12.690Z,46.95
2023-03-22T04:58:43.466Z,46.64
2023-03-22T05:01:17.216Z,46.63
2023-03-22T05:03:47.687Z,46.37
2023-03-22T05:06:18.525Z,46.34
2023-03-22T05:08:49.260Z,46.31
2023-03-22T05:11:20.617Z,46.36
2023-03-22T05:13:51.454Z,46.31
2023-03-22T05:16:22.806Z,46.11
2023-03-22T05:18:54.880Z,46.11
2023-03-22T05:21:28.248Z,45.71
2023-03-22T05:24:00.436Z,45.79
2023-03-22T05:26:31.093Z,45.74
2023-03-22T05:29:02.062Z,45.98
2023-03-22T05:31:34.698Z,45.96
2023-03-22T05:34:05.481Z,46.18
2023-03-22T05:36:37.075Z,46.06
2023-03-22T05:39:08.126Z,46.34
2023-03-22T05:41:38.862Z,46.32
2023-03-22T05:44:09.728Z,46.40
2023-03-22T05:46:40.467Z,46.37
2023-03-22T05:49:12.206Z,46.21
2023-03-22T05:51:43.890Z,46.14
2023-03-22T05:54:14.829Z,46.27
2023-03-22T05:56:45.980Z,46.22
2023-03-22T05:59:16.708Z,46.18
2023-03-22T06:01:47.417Z,45.92
2023-03-22T06:04:18.918Z,46.03
2023-03-22T06:06:50.476Z,46.04
2023-03-22T06:09:21.335Z,46.27
2023-03-22T06:11:52.436Z,46.11
2023-03-22T06:14:23.114Z,46.12
2023-03-22T06:16:54.090Z,46.16
2023-03-22T06:19:25.744Z,45.95
2023-03-22T06:21:56.507Z,45.96
2023-03-22T06:24:27.480Z,46.14
2023-03-22T06:26:58.119Z,46.08
2023-03-22T06:29:28.846Z,45.96
2023-03-22T06:31:59.589Z,46.07
2023-03-22T06:34:30.377Z,46.06
2023-03-22T06:37:01.418Z,46.08
2023-03-22T06:39:32.406Z,45.90
2023-03-22T06:42:03.048Z,45.85
2023-03-22T06:44:33.849Z,45.92
2023-03-22T06:47:04.505Z,45.97
2023-03-22T06:49:35.146Z,46.03
2023-03-22T06:52:06.149Z,45.80
2023-03-22T06:54:37.408Z,45.96
2023-03-22T06:57:08.607Z,45.94
2023-03-22T06:59:39.371Z,46.09
2023-03-22T07:02:12.717Z,45.93
2023-03-22T07:04:43.584Z,45.93
2023-03-22T07:07:14.821Z,46.02
2023-03-22T07:09:45.557Z,45.89
2023-03-22T07:12:17.020Z,46.11
2023-03-22T07:14:47.851Z,46.21
2023-03-22T07:17:18.500Z,46.26
2023-03-22T07:19:49.128Z,46.20
2023-03-22T07:22:22.234Z,46.05
2023-03-22T07:24:57.621Z,46.00
2023-03-22T07:27:30.042Z,46.07
2023-03-22T07:30:00.695Z,46.07
2023-03-22T07:32:31.627Z,45.97
2023-03-22T07:35:02.358Z,46.07
2023-03-22T07:37:33.013Z,46.06
2023-03-22T07:40:04.934Z,46.16
2023-03-22T07:42:35.697Z,46.03
2023-03-22T07:45:08.087Z,45.89
2023-03-22T07:47:41.369Z,46.11
2023-03-22T07:50:13.934Z,46.03
2023-03-22T07:52:45.653Z,45.88
2023-03-22T07:55:16.942Z,45.80
2023-03-22T07:57:47.598Z,45.74
2023-03-22T08:00:19.678Z,45.89
2023-03-22T08:02:50.398Z,45.75
2023-03-22T08:05:22.599Z,45.78
2023-03-22T08:07:54.402Z,45.92
2023-03-22T08:10:25.381Z,46.03
2023-03-22T08:12:55.996Z,45.74
2023-03-22T08:15:26.634Z,45.89
2023-03-22T08:17:58.203Z,45.67
2023-03-22T08:20:29.102Z,45.58
2023-03-22T08:23:00.239Z,45.52
2023-03-22T08:25:32.475Z,45.62
2023-03-22T08:28:03.618Z,45.49
2023-03-22T08:30:34.252Z,45.53
2023-03-22T08:33:06.576Z,45.45
2023-03-22T08:35:38.137Z,45.47
2023-03-22T08:38:09.212Z,45.65
2023-03-22T08:40:39.861Z,45.57
2023-03-22T08:43:10.649Z,45.44
2023-03-22T08:45:41.492Z,45.57
2023-03-22T08:48:12.558Z,45.56
2023-03-22T08:50:43.327Z,45.48
2023-03-22T08:53:14.684Z,45.40
2023-03-22T08:55:45.411Z,45.47
2023-03-22T08:58:19.668Z,45.55
2023-03-22T09:00:50.956Z,45.57
2023-03-22T09:03:22.926Z,45.50
2023-03-22T09:05:53.784Z,45.45
2023-03-22T09:08:24.445Z,45.48
2023-03-22T09:10:55.458Z,45.47
2023-03-22T09:13:26.308Z,45.31
2023-03-22T09:15:57.376Z,45.43
2023-03-22T09:18:28.517Z,45.40
2023-03-22T09:20:59.267Z,45.42
2023-03-22T09:23:30.467Z,45.30
2023-03-22T09:26:02.965Z,45.51
2023-03-22T09:28:34.692Z,45.59
2023-03-22T09:31:08.386Z,45.45
2023-03-22T09:33:41.520Z,45.61
2023-03-22T09:36:13.177Z,45.43
2023-03-22T09:38:45.738Z,45.54
2023-03-22T09:41:23.645Z,45.51
2023-03-22T09:43:59.277Z,45.45
2023-03-22T09:46:36.008Z,45.44
2023-03-22T09:49:11.714Z,45.57
2023-03-22T09:51:45.672Z,45.43
2023-03-22T09:54:21.691Z,45.48
2023-03-22T09:56:58.180Z,45.25
2023-03-22T09:59:40.060Z,45.42
2023-03-22T10:02:38.073Z,45.04
2023-03-22T10:05:20.344Z,45.38
2023-03-22T10:08:12.931Z,45.35
2023-03-22T10:10:44.423Z,45.33
2023-03-22T10:13:23.616Z,45.41
2023-03-22T10:15:59.207Z,45.10
2023-03-22T10:18:37.205Z,45.21
2023-03-22T10:21:09.807Z,45.12
2023-03-22T10:23:44.277Z,45.13
2023-03-22T10:26:22.720Z,45.19
2023-03-22T10:29:03.498Z,45.25
2023-03-22T10:31:36.017Z,45.09
2023-03-22T10:34:13.402Z,45.19
2023-03-22T10:36:45.778Z,45.11
2023-03-22T10:39:27.155Z,45.12
2023-03-22T10:42:01.242Z,44.98
2023-03-22T10:44:39.019Z,45.25
2023-03-22T10:47:11.474Z,45.03
2023-03-22T10:49:46.536Z,45.01
2023-03-22T10:52:34.644Z,44.95
2023-03-22T10:55:07.688Z,44.96
2023-03-22T10:57:40.057Z,45.00
2023-03-22T11:00:17.594Z,44.95
2023-03-22T11:02:55.269Z,44.96
2023-03-22T11:05:29.101Z,45.20
2023-03-22T11:07:59.632Z,45.15
2023-03-22T11:10:33.799Z,44.99
2023-03-22T11:13:23.230Z,44.97
2023-03-22T11:16:01.492Z,44.72
2023-03-22T11:18:34.922Z,45.16
2023-03-22T11:21:11.004Z,44.96
2023-03-22T11:23:53.318Z,44.93
2023-03-22T11:26:31.730Z,44.64
2023-03-22T11:29:13.223Z,44.84
2023-03-22T11:31:57.271Z,44.73
2023-03-22T11:34:30.198Z,44.83
2023-03-22T11:37:02.855Z,44.79
2023-03-22T11:39:33.534Z,44.84
2023-03-22T11:42:07.064Z,44.90
2023-03-22T11:44:38.973Z,44.75
2023-03-22T11:47:14.343Z,44.82
2023-03-22T11:49:48.839Z,44.78
2023-03-22T11:52:24.700Z,44.81
2023-03-22T11:54:56.966Z,44.62
2023-03-22T11:57:31.573Z,44.75
2023-03-22T12:00:11.511Z,44.64
2023-03-22T12:02:47.308Z,44.70
2023-03-22T12:05:22.861Z,44.67
2023-03-22T12:07:57.421Z,44.54
2023-03-22T12:10:32.807Z,44.71
2023-03-22T12:13:07.397Z,44.72
2023-03-22T12:15:47.506Z,44.46
2023-03-22T12:18:24.285Z,44.66
2023-03-22T12:20:58.141Z,44.64
2023-03-22T12:23:31.185Z,44.55
2023-03-22T12:26:05.430Z,44.62
2023-03-22T12:28:42.741Z,44.68
2023-03-22T12:31:18.327Z,44.60
2023-03-22T12:33:52.406Z,44.66
2023-03-22T12:36:31.315Z,44.67
2023-03-22T12:39:05.206Z,44.69
2023-03-22T12:41:40.306Z,44.65
2023-03-22T12:44:17.882Z,44.53
2023-03-22T12:46:54.977Z,44.64
2023-03-22T12:49:31.283Z,44.50
2023-03-22T12:52:14.354Z,44.51
2023-03-22T12:54:47.165Z,44.44
2023-03-22T12:57:18.808Z,44.56
2023-03-22T12:59:53.229Z,44.61
2023-03-22T13:02:31.335Z,44.54
2023-03-22T13:05:05.074Z,44.42
2023-03-22T13:07:38.784Z,44.49
2023-03-22T13:10:54.063Z,44.46
2023-03-22T13:13:54.478Z,44.36
2023-03-22T13:16:43.717Z,44.54
2023-03-22T13:19:37.742Z,44.33
2023-03-22T13:22:21.951Z,44.38
2023-03-22T13:25:08.698Z,44.26
2023-03-22T13:27:43.700Z,44.32
2023-03-22T13:30:26.544Z,44.32
2023-03-22T13:33:03.923Z,44.14
2023-03-22T13:35:47.245Z,44.30
2023-03-22T13:38:24.476Z,44.39
2023-03-22T13:41:01.913Z,44.34
2023-03-22T13:43:44.732Z,44.14
2023-03-22T13:46:45.090Z,44.18
2023-03-22T13:49:36.631Z,44.14
2023-03-22T13:52:11.275Z,44.07
2023-03-22T13:54:49.652Z,44.06
2023-03-22T13:57:45.567Z,44.02
2023-03-22T14:00:44.872Z,43.95
2023-03-22T14:03:25.666Z,44.06
2023-03-22T14:06:09.571Z,43.82
2023-03-22T14:08:42.275Z,43.76
2023-03-22T14:11:27.729Z,43.64
2023-03-22T14:14:06.090Z,43.65
2023-03-22T14:16:42.511Z,43.47
2023-03-22T14:19:20.523Z,43.63
